createdAt,value
2018-03-28T00:01:55.962Z,93.47
2018-03-28T00:04:23.593Z,93.44
2018-03-28T00:06:51.137Z,93.37
2018-03-28T00:09:18.931Z,93.27
2018-03-28T00:11:46.595Z,93.54
2018-03-28T00:14:14.215Z,93.53
2018-03-28T00:16:41.985Z,93.44
2018-03-28T00:19:09.675Z,93.62
2018-03-28T00:21:37.241Z,93.62
2018-03-28T00:24:05.039Z,93.72
2018-03-28T00:26:32.620Z,93.57
2018-03-28T00:29:00.197Z,93.23
2018-03-28T00:31:27.956Z,93.18
2018-03-28T00:33:55.673Z,93.04
2018-03-28T00:36:23.234Z,93.19
2018-03-28T00:38:50.806Z,93.20
2018-03-28T00:41:18.564Z,93.13
2018-03-28T00:43:46.384Z,93.42
2018-03-28T00:46:14.102Z,93.97
2018-03-28T00:48:41.921Z,94.09
2018-03-28T00:51:21.154Z,93.66
2018-03-28T00:53:48.997Z,93.75
2018-03-28T00:56:16.570Z,94.13
2018-03-28T00:58:44.138Z,94.45
2018-03-28T01:01:11.735Z,94.32
2018-03-28T01:03:39.294Z,93.88
2018-03-28T01:06:06.965Z,94.16
2018-03-28T01:08:34.674Z,94.35
2018-03-28T01:11:02.290Z,94.56
2018-03-28T01:13:29.865Z,94.59
2018-03-28T01:15:57.549Z,94.19
2018-03-28T01:18:25.136Z,94.14
2018-03-28T01:20:52.893Z,94.30
2018-03-28T01:23:20.502Z,94.11
2018-03-28T01:25:48.068Z,93.79
2018-03-28T01:28:15.679Z,93.33
2018-03-28T01:30:43.242Z,93.61
2018-03-28T01:33:10.838Z,93.81
2018-03-28T01:35:38.406Z,93.94
2018-03-28T01:38:06.218Z,94.00
2018-03-28T01:40:33.786Z,94.07
2018-03-28T01:43:01.346Z,94.07
2018-03-28T01:45:29.167Z,94.01
2018-03-28T01:47:56.992Z,93.64
2018-03-28T01:50:24.811Z,93.58
2018-03-28T01:52:52.376Z,93.59
2018-03-28T01:55:20.145Z,93.20
2018-03-28T01:57:47.964Z,92.64
2018-03-28T02:00:15.530Z,92.69
2018-03-28T02:02:43.144Z,93.02
2018-03-28T02:05:10.779Z,93.32
2018-03-28T02:07:38.310Z,93.27
2018-03-28T02:10:05.873Z,93.14
2018-03-28T02:12:33.426Z,93.20
2018-03-28T02:15:01.188Z,93.24
2018-03-28T02:17:29.009Z,93.17
2018-03-28T02:19:56.925Z,92.78
2018-03-28T02:22:24.482Z,92.18
2018-03-28T02:24:52.226Z,91.92
2018-03-28T02:27:19.802Z,91.80
2018-03-28T02:29:47.598Z,91.90
2018-03-28T02:32:15.163Z,92.15
2018-03-28T02:34:42.814Z,92.33
2018-03-28T02:37:10.632Z,92.76
2018-03-28T02:39:38.231Z,92.83
2018-03-28T02:42:05.806Z,92.90
2018-03-28T02:44:33.495Z,93.15
2018-03-28T02:47:01.089Z,93.34
2018-03-28T02:49:28.658Z,93.50
2018-03-28T02:51:56.227Z,93.38
2018-03-28T02:54:23.866Z,93.03
2018-03-28T02:56:51.440Z,93.04
2018-03-28T02:59:18.993Z,92.99
2018-03-28T03:01:46.563Z,92.51
2018-03-28T03:04:14.127Z,91.72
2018-03-28T03:06:41.702Z,91.35
2018-03-28T03:09:09.300Z,91.27
2018-03-28T03:11:36.984Z,90.71
2018-03-28T03:14:04.700Z,91.00
2018-03-28T03:16:32.415Z,91.50
2018-03-28T03:18:59.985Z,91.52
2018-03-28T03:21:27.549Z,91.79
2018-03-28T03:23:55.182Z,92.20
2018-03-28T03:26:22.746Z,92.35
2018-03-28T03:28:50.497Z,92.21
2018-03-28T03:31:18.069Z,92.57
2018-03-28T03:33:45.644Z,92.52
2018-03-28T03:36:13.209Z,92.72
2018-03-28T03:38:40.765Z,92.95
2018-03-28T03:41:08.329Z,93.17
2018-03-28T03:43:36.132Z,93.38
2018-03-28T03:46:03.759Z,93.68
2018-03-28T03:48:31.460Z,93.57
2018-03-28T03:50:59.018Z,93.20
2018-03-28T03:53:26.585Z,92.47
2018-03-28T03:55:54.143Z,91.75
2018-03-28T03:58:21.723Z,92.02
2018-03-28T04:00:49.433Z,91.97
2018-03-28T04:03:17.060Z,92.43
2018-03-28T04:05:44.896Z,92.98
2018-03-28T04:08:12.446Z,93.51
2018-03-28T04:10:40.197Z,93.89
2018-03-28T04:13:07.915Z,93.06
2018-03-28T04:15:35.630Z,92.15
2018-03-28T04:18:03.196Z,91.61
2018-03-28T04:20:30.814Z,91.61
2018-03-28T04:22:58.381Z,91.49
2018-03-28T04:25:25.938Z,91.56
2018-03-28T04:27:53.545Z,91.05
2018-03-28T04:30:21.252Z,91.04
2018-03-28T04:32:48.884Z,91.30
2018-03-28T04:35:16.449Z,91.63
2018-03-28T04:37:44.087Z,91.84
2018-03-28T04:40:11.846Z,92.44
2018-03-28T04:42:39.422Z,93.08
2018-03-28T04:45:07.012Z,93.36
2018-03-28T04:47:34.570Z,93.40
2018-03-28T04:50:02.306Z,93.07
2018-03-28T04:52:30.033Z,92.64
2018-03-28T04:54:57.682Z,92.51
2018-03-28T04:57:25.239Z,92.33
2018-03-28T04:59:52.797Z,92.10
2018-03-28T05:02:20.605Z,91.68
2018-03-28T05:04:48.166Z,91.34
2018-03-28T05:07:15.942Z,91.47
2018-03-28T05:09:43.636Z,91.71
2018-03-28T05:12:11.269Z,91.87
2018-03-28T05:14:39.119Z,91.37
2018-03-28T05:17:06.914Z,90.88
2018-03-28T05:19:34.523Z,91.04
2018-03-28T05:22:02.217Z,90.75
2018-03-28T05:24:29.778Z,90.24
2018-03-28T05:26:57.486Z,90.38
2018-03-28T05:29:25.108Z,90.07
2018-03-28T05:31:52.665Z,90.67
2018-03-28T05:34:20.438Z,91.16
2018-03-28T05:36:48.149Z,91.53
2018-03-28T05:39:15.725Z,91.57
2018-03-28T05:41:43.385Z,91.10
2018-03-28T05:44:10.962Z,90.77
2018-03-28T05:46:38.643Z,90.36
2018-03-28T05:49:06.420Z,89.88
2018-03-28T05:51:33.991Z,89.51
2018-03-28T05:54:01.822Z,89.67
2018-03-28T05:56:29.602Z,89.96
2018-03-28T05:58:57.322Z,89.74
2018-03-28T06:01:25.144Z,90.12
2018-03-28T06:03:52.957Z,90.15
2018-03-28T06:06:20.660Z,89.53
2018-03-28T06:08:48.213Z,89.41
2018-03-28T06:11:16.011Z,89.46
2018-03-28T06:13:43.808Z,89.99
2018-03-28T06:16:11.525Z,90.29
2018-03-28T06:18:39.746Z,89.93
2018-03-28T06:21:07.457Z,89.05
2018-03-28T06:23:35.070Z,88.85
2018-03-28T06:26:02.631Z,88.73
2018-03-28T06:28:30.339Z,88.64
2018-03-28T06:30:58.158Z,88.55
2018-03-28T06:33:25.767Z,88.51
2018-03-28T06:35:53.347Z,87.92
2018-03-28T06:38:20.915Z,88.50
2018-03-28T06:40:48.729Z,89.03
2018-03-28T06:43:16.339Z,88.91
2018-03-28T06:45:43.916Z,88.36
2018-03-28T06:48:11.490Z,87.85
2018-03-28T06:50:39.053Z,87.04
2018-03-28T06:53:06.633Z,86.89
2018-03-28T06:55:34.199Z,86.57
2018-03-28T06:58:01.845Z,85.80
2018-03-28T07:00:29.403Z,86.06
2018-03-28T07:02:57.195Z,85.89
2018-03-28T07:05:24.779Z,85.69
2018-03-28T07:07:52.346Z,85.95
2018-03-28T07:10:20.143Z,85.90
2018-03-28T07:12:47.722Z,86.25
2018-03-28T07:15:15.346Z,86.53
2018-03-28T07:17:43.097Z,86.65
2018-03-28T07:20:10.919Z,86.34
2018-03-28T07:22:38.489Z,85.91
2018-03-28T07:25:06.137Z,85.83
2018-03-28T07:27:33.863Z,85.95
2018-03-28T07:30:01.435Z,85.92
2018-03-28T07:32:28.989Z,85.84
2018-03-28T07:34:56.723Z,84.92
2018-03-28T07:37:24.298Z,84.36
2018-03-28T07:39:51.874Z,84.11
2018-03-28T07:42:19.678Z,83.30
2018-03-28T07:44:47.289Z,82.21
2018-03-28T07:47:15.014Z,82.22
2018-03-28T07:49:42.834Z,80.68
2018-03-28T07:52:10.653Z,81.37
2018-03-28T07:54:38.214Z,81.90
2018-03-28T07:57:05.866Z,81.97
2018-03-28T07:59:33.422Z,81.77
2018-03-28T08:02:01.047Z,81.76
2018-03-28T08:04:28.840Z,81.45
2018-03-28T08:06:56.658Z,82.38
2018-03-28T08:09:24.249Z,81.71
2018-03-28T08:11:51.811Z,80.97
2018-03-28T08:14:19.434Z,80.34
2018-03-28T08:16:46.998Z,80.21
2018-03-28T08:19:14.880Z,79.91
2018-03-28T08:21:42.555Z,80.06
2018-03-28T08:24:10.153Z,79.92
2018-03-28T08:26:37.722Z,79.43
2018-03-28T08:29:05.520Z,79.91
2018-03-28T08:31:33.343Z,80.24
2018-03-28T08:34:01.036Z,79.13
2018-03-28T08:36:28.754Z,78.58
2018-03-28T08:38:56.493Z,77.44
2018-03-28T08:41:24.049Z,78.13
2018-03-28T08:43:51.618Z,77.94
2018-03-28T08:46:19.345Z,77.07
2018-03-28T08:48:47.164Z,76.31
2018-03-28T08:51:14.984Z,76.16
2018-03-28T08:53:42.766Z,75.98
2018-03-28T08:56:10.326Z,74.73
2018-03-28T08:58:37.885Z,75.02
2018-03-28T09:01:05.482Z,74.36
2018-03-28T09:03:33.273Z,73.39
2018-03-28T09:06:00.842Z,71.72
2018-03-28T09:08:28.500Z,70.88
2018-03-28T09:10:56.327Z,70.83
2018-03-28T09:13:23.886Z,71.24
2018-03-28T09:15:51.448Z,71.06
2018-03-28T09:18:19.257Z,70.15
2018-03-28T09:20:46.814Z,69.32
2018-03-28T09:23:14.381Z,69.57
2018-03-28T09:25:41.956Z,68.97
2018-03-28T09:28:09.652Z,69.40
2018-03-28T09:30:37.224Z,68.92
2018-03-28T09:33:04.810Z,68.86
2018-03-28T09:35:32.382Z,67.40
2018-03-28T09:37:59.942Z,66.89
2018-03-28T09:40:27.533Z,68.43
2018-03-28T09:42:55.220Z,66.38
2018-03-28T09:45:23.076Z,67.01
2018-03-28T09:47:50.630Z,66.37
2018-03-28T09:50:18.192Z,64.84
2018-03-28T09:52:45.930Z,66.06
2018-03-28T09:55:13.640Z,64.77
2018-03-28T09:57:41.210Z,65.30
2018-03-28T10:00:09.087Z,65.36
2018-03-28T10:02:42.118Z,63.15
2018-03-28T10:05:11.662Z,63.75
2018-03-28T10:07:39.234Z,64.92
2018-03-28T10:10:07.082Z,65.67
2018-03-28T10:12:34.673Z,64.15
2018-03-28T10:15:02.535Z,63.33
2018-03-28T10:17:30.108Z,60.12
2018-03-28T10:19:57.732Z,59.93
2018-03-28T10:22:25.296Z,60.96
2018-03-28T10:24:52.875Z,59.95
2018-03-28T10:27:20.709Z,61.06
2018-03-28T10:29:48.538Z,60.70
2018-03-28T10:32:16.117Z,60.57
2018-03-28T10:34:43.839Z,58.57
2018-03-28T10:37:11.681Z,59.56
2018-03-28T10:39:39.242Z,59.14
2018-03-28T10:42:06.806Z,56.80
2018-03-28T10:44:34.378Z,59.23
2018-03-28T10:47:02.154Z,58.02
2018-03-28T10:49:29.971Z,58.19
2018-03-28T10:51:57.795Z,58.58
2018-03-28T10:54:25.421Z,60.18
2018-03-28T10:56:53.106Z,60.44
2018-03-28T10:59:20.684Z,60.62
2018-03-28T11:01:48.266Z,61.31
2018-03-28T11:04:16.081Z,61.38
2018-03-28T11:06:43.899Z,60.06
2018-03-28T11:09:11.458Z,61.05
2018-03-28T11:11:39.081Z,61.16
2018-03-28T11:14:06.650Z,60.19
2018-03-28T11:16:34.469Z,60.12
2018-03-28T11:19:02.070Z,59.62
2018-03-28T11:21:29.649Z,60.72
2018-03-28T11:23:57.236Z,59.74
2018-03-28T11:26:24.832Z,59.49
2018-03-28T11:28:52.623Z,58.95
2018-03-28T11:31:20.477Z,58.56
2018-03-28T11:33:48.051Z,59.40
2018-03-28T11:36:15.696Z,59.08
2018-03-28T11:38:43.264Z,58.35
2018-03-28T11:41:10.845Z,58.62
2018-03-28T11:43:38.566Z,56.76
2018-03-28T11:46:06.365Z,55.53
2018-03-28T11:48:33.931Z,56.53
2018-03-28T11:51:01.506Z,57.94
2018-03-28T11:53:29.073Z,56.66
2018-03-28T11:55:56.654Z,57.73
2018-03-28T11:58:24.287Z,56.50
2018-03-28T12:00:51.861Z,56.78
2018-03-28T12:03:19.422Z,56.76
2018-03-28T12:05:47.004Z,55.28
2018-03-28T12:08:14.744Z,56.08
2018-03-28T12:10:42.354Z,55.91
2018-03-28T12:13:10.081Z,55.99
2018-03-28T12:15:37.900Z,54.93
2018-03-28T12:18:05.478Z,54.05
2018-03-28T12:20:33.052Z,53.70
2018-03-28T12:23:00.677Z,52.62
2018-03-28T12:25:28.252Z,53.82
2018-03-28T12:27:55.992Z,53.67
2018-03-28T12:30:23.813Z,53.38
2018-03-28T12:32:51.625Z,51.62
2018-03-28T12:35:19.444Z,51.15
2018-03-28T12:37:47.262Z,50.95
2018-03-28T12:40:14.980Z,51.83
2018-03-28T12:42:42.596Z,52.38
2018-03-28T12:45:10.171Z,52.68
2018-03-28T12:47:38.035Z,52.64
2018-03-28T12:50:05.935Z,54.04
2018-03-28T12:52:33.466Z,52.81
2018-03-28T12:55:01.043Z,54.31
2018-03-28T12:57:28.807Z,54.63
2018-03-28T12:59:56.683Z,55.49
2018-03-28T13:02:24.391Z,53.56
2018-03-28T13:04:52.168Z,54.41
2018-03-28T13:07:19.771Z,54.89
2018-03-28T13:09:47.599Z,54.12
2018-03-28T13:12:15.170Z,52.54
2018-03-28T13:14:42.744Z,51.77
2018-03-28T13:17:10.370Z,52.03
2018-03-28T13:19:37.970Z,51.62
2018-03-28T13:22:05.790Z,52.40
2018-03-28T13:24:33.607Z,50.91
2018-03-28T13:27:01.325Z,52.25
2018-03-28T13:29:28.891Z,52.99
2018-03-28T13:31:56.446Z,52.43
2018-03-28T13:34:24.057Z,51.95
2018-03-28T13:36:51.632Z,52.78
2018-03-28T13:39:19.200Z,52.43
2018-03-28T13:41:46.771Z,51.54
2018-03-28T13:44:14.432Z,51.17
2018-03-28T13:46:42.055Z,51.56
2018-03-28T13:49:09.676Z,49.73
2018-03-28T13:51:37.242Z,48.00
2018-03-28T13:54:05.021Z,47.18
2018-03-28T13:56:32.586Z,48.11
2018-03-28T13:59:00.359Z,48.58
2018-03-28T14:01:27.933Z,51.71
2018-03-28T14:03:55.693Z,51.34
2018-03-28T14:06:23.271Z,50.57
2018-03-28T14:08:50.848Z,50.74
2018-03-28T14:11:18.421Z,51.11
2018-03-28T14:13:45.982Z,51.54
2018-03-28T14:16:13.719Z,50.99
2018-03-28T14:18:42.170Z,52.99
2018-03-28T14:21:09.741Z,55.03
2018-03-28T14:23:37.334Z,54.44
2018-03-28T14:26:05.156Z,54.11
2018-03-28T14:28:32.726Z,52.23
2018-03-28T14:31:00.493Z,51.57
2018-03-28T14:33:28.126Z,48.36
2018-03-28T14:35:55.930Z,48.52
2018-03-28T14:38:23.496Z,46.92
2018-03-28T14:40:51.156Z,45.67
2018-03-28T14:43:18.763Z,45.59
2018-03-28T14:45:46.466Z,46.13
2018-03-28T14:48:14.185Z,47.91
2018-03-28T14:50:41.810Z,47.51
2018-03-28T14:53:09.366Z,47.20
2018-03-28T14:55:37.001Z,48.47
2018-03-28T14:58:04.625Z,50.14
2018-03-28T15:00:32.198Z,51.80
2018-03-28T15:03:00.029Z,52.73
2018-03-28T15:05:27.610Z,53.53
2018-03-28T15:07:55.230Z,53.15
2018-03-28T15:10:22.818Z,53.92
2018-03-28T15:12:50.381Z,54.65
2018-03-28T15:15:17.955Z,55.52
2018-03-28T15:17:45.624Z,54.94
2018-03-28T15:20:13.455Z,56.18
2018-03-28T15:22:41.018Z,56.50
2018-03-28T15:25:08.887Z,55.04
2018-03-28T15:27:36.470Z,54.53
2018-03-28T15:30:04.324Z,56.51
2018-03-28T15:32:31.893Z,56.34
2018-03-28T15:34:59.623Z,58.13
2018-03-28T15:37:27.271Z,58.18
2018-03-28T15:39:54.850Z,59.56
2018-03-28T15:42:22.482Z,59.45
2018-03-28T15:44:50.117Z,58.66
2018-03-28T15:47:17.926Z,59.16
2018-03-28T15:49:45.672Z,59.60
2018-03-28T15:52:13.277Z,60.06
2018-03-28T15:54:40.882Z,59.84
2018-03-28T15:57:08.446Z,59.71
2018-03-28T15:59:36.075Z,60.06
2018-03-28T16:02:03.671Z,59.84
2018-03-28T16:04:31.475Z,60.77
2018-03-28T16:06:59.062Z,62.10
2018-03-28T16:09:26.811Z,63.94
2018-03-28T16:11:54.426Z,65.36
2018-03-28T16:14:21.995Z,65.79
2018-03-28T16:16:49.869Z,65.02
2018-03-28T16:19:17.684Z,65.80
2018-03-28T16:21:45.242Z,66.66
2018-03-28T16:24:12.825Z,65.97
2018-03-28T16:26:40.639Z,66.62
2018-03-28T16:29:08.213Z,67.58
2018-03-28T16:31:35.782Z,69.29
2018-03-28T16:34:03.420Z,70.58
2018-03-28T16:36:30.990Z,71.05
2018-03-28T16:38:58.579Z,71.67
2018-03-28T16:41:26.208Z,71.92
2018-03-28T16:43:53.933Z,72.70
2018-03-28T16:46:21.652Z,72.91
2018-03-28T16:48:49.402Z,73.08
2018-03-28T16:51:17.108Z,73.27
2018-03-28T16:53:44.683Z,74.29
2018-03-28T16:56:12.250Z,74.81
2018-03-28T16:58:39.826Z,75.11
2018-03-28T17:01:07.390Z,74.89
2018-03-28T17:03:34.967Z,75.32
2018-03-28T17:06:02.539Z,75.37
2018-03-28T17:08:30.171Z,75.15
2018-03-28T17:10:57.961Z,75.58
2018-03-28T17:13:25.558Z,76.50
2018-03-28T17:15:53.274Z,77.47
2018-03-28T17:18:20.845Z,77.50
2018-03-28T17:20:48.631Z,77.95
2018-03-28T17:23:16.449Z,78.11
2018-03-28T17:25:44.086Z,78.44
2018-03-28T17:28:11.669Z,78.28
2018-03-28T17:30:39.239Z,78.04
2018-03-28T17:33:06.819Z,77.75
2018-03-28T17:35:34.387Z,77.88
2018-03-28T17:38:01.975Z,77.51
2018-03-28T17:40:29.774Z,76.97
2018-03-28T17:42:57.409Z,77.21
2018-03-28T17:45:25.211Z,77.32
2018-03-28T17:47:53.028Z,78.08
2018-03-28T17:50:20.641Z,78.50
2018-03-28T17:52:48.466Z,78.81
2018-03-28T17:55:16.045Z,79.49
2018-03-28T17:57:43.776Z,79.47
2018-03-28T18:00:11.620Z,79.81
2018-03-28T18:02:39.219Z,79.74
2018-03-28T18:05:06.832Z,79.91
2018-03-28T18:07:34.444Z,79.95
2018-03-28T18:10:02.191Z,79.57
2018-03-28T18:12:30.010Z,79.66
2018-03-28T18:14:57.829Z,79.55
2018-03-28T18:17:25.631Z,80.12
2018-03-28T18:19:53.466Z,80.21
2018-03-28T18:22:21.076Z,80.86
2018-03-28T18:24:48.902Z,81.17
2018-03-28T18:27:16.721Z,80.64
2018-03-28T18:29:44.295Z,81.08
2018-03-28T18:32:12.031Z,81.50
2018-03-28T18:34:39.875Z,81.85
2018-03-28T18:37:07.697Z,82.24
2018-03-28T18:39:35.304Z,82.54
2018-03-28T18:42:02.928Z,82.88
2018-03-28T18:44:30.511Z,82.57
2018-03-28T18:46:58.162Z,82.53
2018-03-28T18:49:25.730Z,82.72
2018-03-28T18:51:53.303Z,82.60
2018-03-28T18:54:20.921Z,83.19
2018-03-28T18:56:48.501Z,83.37
2018-03-28T18:59:16.268Z,83.39
2018-03-28T19:01:43.997Z,83.26
2018-03-28T19:04:11.671Z,83.00
2018-03-28T19:06:39.326Z,83.13
2018-03-28T19:09:07.012Z,83.38
2018-03-28T19:11:34.642Z,83.94
2018-03-28T19:14:02.253Z,84.22
2018-03-28T19:16:30.081Z,83.65
2018-03-28T19:18:57.898Z,83.82
2018-03-28T19:21:25.476Z,84.16
2018-03-28T19:23:53.057Z,84.57
2018-03-28T19:26:20.937Z,84.94
2018-03-28T19:28:48.772Z,84.92
2018-03-28T19:31:16.341Z,84.69
2018-03-28T19:33:43.905Z,84.51
2018-03-28T19:36:11.490Z,84.63
2018-03-28T19:38:39.244Z,84.53
2018-03-28T19:41:06.826Z,84.56
2018-03-28T19:43:34.398Z,84.49
2018-03-28T19:46:02.289Z,84.82
2018-03-28T19:48:30.016Z,85.05
2018-03-28T19:50:57.627Z,85.27
2018-03-28T19:53:25.452Z,85.61
2018-03-28T19:55:53.049Z,86.06
2018-03-28T19:58:20.622Z,86.20
2018-03-28T20:00:48.190Z,85.96
2018-03-28T20:03:15.822Z,86.22
2018-03-28T20:05:43.641Z,85.87
2018-03-28T20:08:11.206Z,85.69
2018-03-28T20:10:38.774Z,85.92
2018-03-28T20:13:06.335Z,85.71
2018-03-28T20:15:33.925Z,85.83
2018-03-28T20:18:01.486Z,85.81
2018-03-28T20:20:29.348Z,85.74
2018-03-28T20:22:57.163Z,85.98
2018-03-28T20:25:24.730Z,86.25
2018-03-28T20:27:52.302Z,86.08
2018-03-28T20:30:19.863Z,85.91
2018-03-28T20:32:47.511Z,86.16
2018-03-28T20:35:15.357Z,86.41
2018-03-28T20:37:43.075Z,86.39
2018-03-28T20:40:10.690Z,86.51
2018-03-28T20:42:38.254Z,86.68
2018-03-28T20:45:05.827Z,86.71
2018-03-28T20:47:33.385Z,86.66
2018-03-28T20:50:00.941Z,86.57
2018-03-28T20:52:28.781Z,86.70
2018-03-28T20:54:56.338Z,87.14
2018-03-28T20:57:24.008Z,86.81
2018-03-28T20:59:51.576Z,86.79
2018-03-28T21:02:19.231Z,86.85
2018-03-28T21:04:46.789Z,87.02
2018-03-28T21:07:14.346Z,86.65
2018-03-28T21:09:42.106Z,86.78
2018-03-28T21:12:09.661Z,87.07
2018-03-28T21:14:37.354Z,87.28
2018-03-28T21:17:04.939Z,87.35
2018-03-28T21:19:32.563Z,87.40
2018-03-28T21:22:00.127Z,87.36
2018-03-28T21:24:27.687Z,87.48
2018-03-28T21:26:55.431Z,87.69
2018-03-28T21:29:22.997Z,87.95
2018-03-28T21:31:50.578Z,88.14
2018-03-28T21:34:18.382Z,88.17
2018-03-28T21:36:46.006Z,88.23
2018-03-28T21:39:13.821Z,88.03
2018-03-28T21:41:41.540Z,87.80
2018-03-28T21:44:09.123Z,88.02
2018-03-28T21:46:36.714Z,88.13
2018-03-28T21:49:04.493Z,87.71
2018-03-28T21:51:32.064Z,87.46
2018-03-28T21:53:59.935Z,87.57
2018-03-28T21:56:27.748Z,87.86
2018-03-28T21:58:55.309Z,88.18
2018-03-28T22:01:23.085Z,88.34
2018-03-28T22:03:50.650Z,87.99
2018-03-28T22:06:18.234Z,87.71
2018-03-28T22:08:45.789Z,87.52
2018-03-28T22:11:13.418Z,87.46
2018-03-28T22:13:40.993Z,86.66
2018-03-28T22:16:08.562Z,86.17
2018-03-28T22:18:36.142Z,86.08
2018-03-28T22:21:03.898Z,85.90
2018-03-28T22:23:31.493Z,85.87
2018-03-28T22:25:59.060Z,86.72
2018-03-28T22:28:26.732Z,86.91
2018-03-28T22:30:54.318Z,86.97
2018-03-28T22:33:21.874Z,86.39
2018-03-28T22:35:49.438Z,86.39
2018-03-28T22:38:17.153Z,87.25
2018-03-28T22:40:44.974Z,87.82
2018-03-28T22:43:12.545Z,88.36
2018-03-28T22:45:40.174Z,88.46
2018-03-28T22:48:07.758Z,88.21
2018-03-28T22:50:35.342Z,88.33
2018-03-28T22:53:02.906Z,88.57
2018-03-28T22:55:30.467Z,88.63
2018-03-28T22:57:58.043Z,88.81
2018-03-28T23:00:25.812Z,88.92
2018-03-28T23:02:53.450Z,88.92
2018-03-28T23:05:21.249Z,88.50
2018-03-28T23:07:48.810Z,88.09
2018-03-28T23:10:16.588Z,88.41
2018-03-28T23:12:44.148Z,88.47
2018-03-28T23:15:11.717Z,88.44
2018-03-28T23:17:39.305Z,88.34
2018-03-28T23:20:06.926Z,88.37
2018-03-28T23:22:39.270Z,88.40
2018-03-28T23:25:06.858Z,87.87
2018-03-28T23:27:34.425Z,87.80
2018-03-28T23:30:02.014Z,87.68
2018-03-28T23:32:29.585Z,88.28
2018-03-28T23:34:57.378Z,88.48
2018-03-28T23:37:25.169Z,88.93
2018-03-28T23:39:52.733Z,89.13
2018-03-28T23:42:20.543Z,89.36
2018-03-28T23:44:48.109Z,89.31
2018-03-28T23:47:15.674Z,89.32
2018-03-28T23:49:43.247Z,89.20
2018-03-28T23:52:10.798Z,89.17
2018-03-28T23:54:38.421Z,89.31
2018-03-28T23:57:05.982Z,89.09
2018-03-28T23:59:33.716Z,88.71
